sensor_id;sensor_type;location;lat;lon;timestamp;pressure;altitude;pressure_sealevel;temperature;humidity
15529;BME280;7866;52.280;9.500;2023-08-08T00:03:08;99999.75;;;13.67;79.73
15529;BME280;7866;52.280;9.500;2023-08-08T00:08:10;100001.41;;;13.68;80.02
15529;BME280;7866;52.280;9.500;2023-08-08T00:13:12;99999.97;;;13.66;80.55
15529;BME280;7866;52.280;9.500;2023-08-08T00:18:15;99997.72;;;13.69;80.53
15529;BME280;7866;52.280;9.500;2023-08-08T00:23:16;99993.78;;;13.72;80.43
15529;BME280;7866;52.280;9.500;2023-08-08T00:28:18;99991.50;;;13.69;80.55
15529;BME280;7866;52.280;9.500;2023-08-08T00:33:21;99984.28;;;13.76;80.80
15529;BME280;7866;52.280;9.500;2023-08-08T00:38:22;99987.16;;;13.74;80.28
15529;BME280;7866;52.280;9.500;2023-08-08T00:43:24;99969.75;;;13.70;80.22
15529;BME280;7866;52.280;9.500;2023-08-08T00:48:27;99951.13;;;13.69;80.53
15529;BME280;7866;52.280;9.500;2023-08-08T00:53:29;99964.59;;;13.75;80.58
15529;BME280;7866;52.280;9.500;2023-08-08T00:58:31;99962.50;;;13.71;81.10
15529;BME280;7866;52.280;9.500;2023-08-08T01:03:34;99953.84;;;13.75;81.05
15529;BME280;7866;52.280;9.500;2023-08-08T01:08:42;99953.84;;;13.75;81.26
15529;BME280;7866;52.280;9.500;2023-08-08T01:13:47;99958.00;;;13.78;81.04
15529;BME280;7866;52.280;9.500;2023-08-08T01:18:50;99943.28;;;13.74;81.50
15529;BME280;7866;52.280;9.500;2023-08-08T01:23:55;99943.50;;;13.79;80.96
15529;BME280;7866;52.280;9.500;2023-08-08T01:28:59;99934.41;;;13.80;81.36
15529;BME280;7866;52.280;9.500;2023-08-08T01:34:00;99938.94;;;13.79;82.56
15529;BME280;7866;52.280;9.500;2023-08-08T01:39:02;99929.22;;;13.78;82.07
15529;BME280;7866;52.280;9.500;2023-08-08T01:44:07;99931.69;;;13.80;82.00
15529;BME280;7866;52.280;9.500;2023-08-08T01:49:09;99929.88;;;13.80;82.05
15529;BME280;7866;52.280;9.500;2023-08-08T01:54:11;99912.91;;;13.87;82.26
15529;BME280;7866;52.280;9.500;2023-08-08T01:59:14;99910.63;;;13.90;82.20
15529;BME280;7866;52.280;9.500;2023-08-08T02:04:15;99908.38;;;13.94;82.69
15529;BME280;7866;52.280;9.500;2023-08-08T02:09:17;99889.78;;;14.05;82.35
15529;BME280;7866;52.280;9.500;2023-08-08T02:14:20;99888.13;;;14.11;82.10
15529;BME280;7866;52.280;9.500;2023-08-08T02:19:21;99883.78;;;14.10;82.39
15529;BME280;7866;52.280;9.500;2023-08-08T02:24:23;99874.66;;;14.11;82.43
15529;BME280;7866;52.280;9.500;2023-08-08T02:29:26;99882.34;;;14.14;82.06
15529;BME280;7866;52.280;9.500;2023-08-08T02:34:28;99885.06;;;14.21;82.56
15529;BME280;7866;52.280;9.500;2023-08-08T02:39:30;99885.25;;;14.26;83.08
15529;BME280;7866;52.280;9.500;2023-08-08T02:44:33;99881.94;;;14.24;82.77
15529;BME280;7866;52.280;9.500;2023-08-08T02:49:35;99888.16;;;14.24;82.42
15529;BME280;7866;52.280;9.500;2023-08-08T02:54:36;99878.22;;;14.32;82.25
15529;BME280;7866;52.280;9.500;2023-08-08T02:59:39;99886.13;;;14.33;81.53
15529;BME280;7866;52.280;9.500;2023-08-08T03:04:41;99871.59;;;14.34;82.29
15529;BME280;7866;52.280;9.500;2023-08-08T03:09:42;99864.97;;;14.37;82.19
15529;BME280;7866;52.280;9.500;2023-08-08T03:14:46;99862.91;;;14.39;82.75
15529;BME280;7866;52.280;9.500;2023-08-08T03:19:47;99861.25;;;14.38;82.09
15529;BME280;7866;52.280;9.500;2023-08-08T03:24:49;99848.38;;;14.40;82.85
15529;BME280;7866;52.280;9.500;2023-08-08T03:29:52;99857.09;;;14.42;82.58
15529;BME280;7866;52.280;9.500;2023-08-08T03:34:53;99856.03;;;14.36;82.72
15529;BME280;7866;52.280;9.500;2023-08-08T03:39:55;99846.31;;;14.28;82.67
15529;BME280;7866;52.280;9.500;2023-08-08T03:44:58;99852.72;;;14.27;82.67
15529;BME280;7866;52.280;9.500;2023-08-08T03:50:00;99846.72;;;14.25;83.29
15529;BME280;7866;52.280;9.500;2023-08-08T03:55:03;99853.38;;;14.29;83.03
15529;BME280;7866;52.280;9.500;2023-08-08T04:00:07;99861.25;;;14.24;83.12
15529;BME280;7866;52.280;9.500;2023-08-08T04:05:09;99840.31;;;14.26;83.33
15529;BME280;7866;52.280;9.500;2023-08-08T04:10:10;99834.50;;;14.29;83.53
15529;BME280;7866;52.280;9.500;2023-08-08T04:15:14;99840.94;;;14.35;83.88
15529;BME280;7866;52.280;9.500;2023-08-08T04:20:15;99838.66;;;14.39;83.14
15529;BME280;7866;52.280;9.500;2023-08-08T04:25:17;99841.16;;;14.40;83.65
15529;BME280;7866;52.280;9.500;2023-08-08T04:30:21;99837.41;;;14.41;83.75
15529;BME280;7866;52.280;9.500;2023-08-08T04:35:23;99837.41;;;14.41;83.42
15529;BME280;7866;52.280;9.500;2023-08-08T04:40:25;99842.19;;;14.46;83.25
15529;BME280;7866;52.280;9.500;2023-08-08T04:45:28;99840.09;;;14.48;83.96
15529;BME280;7866;52.280;9.500;2023-08-08T04:50:29;99823.78;;;14.49;83.52
15529;BME280;7866;52.280;9.500;2023-08-08T04:55:31;99826.88;;;14.60;83.69
15529;BME280;7866;52.280;9.500;2023-08-08T05:00:34;99814.25;;;14.60;83.48
15529;BME280;7866;52.280;9.500;2023-08-08T05:05:36;99814.63;;;14.64;83.66
15529;BME280;7866;52.280;9.500;2023-08-08T05:10:37;99805.72;;;14.70;83.25
15529;BME280;7866;52.280;9.500;2023-08-08T05:15:40;99802.41;;;14.74;83.11
15529;BME280;7866;52.280;9.500;2023-08-08T05:20:42;99800.94;;;14.78;83.80
15529;BME280;7866;52.280;9.500;2023-08-08T05:25:45;99791.63;;;14.81;83.64
15529;BME280;7866;52.280;9.500;2023-08-08T05:30:48;99793.66;;;14.92;83.33
15529;BME280;7866;52.280;9.500;2023-08-08T05:35:49;99803.00;;;14.96;83.03
15529;BME280;7866;52.280;9.500;2023-08-08T05:40:51;99803.81;;;14.97;83.22
15529;BME280;7866;52.280;9.500;2023-08-08T05:45:54;99813.97;;;15.01;82.68
15529;BME280;7866;52.280;9.500;2023-08-08T05:50:55;99806.47;;;15.03;83.11
15529;BME280;7866;52.280;9.500;2023-08-08T05:55:59;99812.50;;;15.06;83.00
15529;BME280;7866;52.280;9.500;2023-08-08T06:01:02;99816.44;;;15.16;82.60
15529;BME280;7866;52.280;9.500;2023-08-08T06:06:06;99829.09;;;15.09;82.78
15529;BME280;7866;52.280;9.500;2023-08-08T06:11:08;99814.75;;;15.22;82.69
15529;BME280;7866;52.280;9.500;2023-08-08T06:16:11;99812.81;;;15.87;80.96
15529;BME280;7866;52.280;9.500;2023-08-08T06:21:12;99817.06;;;16.40;77.95
15529;BME280;7866;52.280;9.500;2023-08-08T06:26:14;99827.91;;;16.58;77.87
15529;BME280;7866;52.280;9.500;2023-08-08T06:31:17;99829.34;;;16.61;78.35
15529;BME280;7866;52.280;9.500;2023-08-08T06:36:19;99810.50;;;16.97;76.84
15529;BME280;7866;52.280;9.500;2023-08-08T06:41:20;99818.63;;;17.53;75.72
15529;BME280;7866;52.280;9.500;2023-08-08T06:46:23;99821.34;;;17.53;75.24
15529;BME280;7866;52.280;9.500;2023-08-08T06:51:25;99815.59;;;17.79;75.06
15529;BME280;7866;52.280;9.500;2023-08-08T06:56:27;99829.28;;;17.66;75.39
15529;BME280;7866;52.280;9.500;2023-08-08T07:01:30;99829.97;;;17.61;74.31
15529;BME280;7866;52.280;9.500;2023-08-08T07:06:32;99823.00;;;17.35;76.06
15529;BME280;7866;52.280;9.500;2023-08-08T07:11:34;99816.63;;;17.96;74.21
15529;BME280;7866;52.280;9.500;2023-08-08T07:16:37;99819.38;;;18.08;73.05
15529;BME280;7866;52.280;9.500;2023-08-08T07:21:38;99821.81;;;17.98;73.34
15529;BME280;7866;52.280;9.500;2023-08-08T07:26:40;99825.44;;;17.73;74.27
15529;BME280;7866;52.280;9.500;2023-08-08T07:31:43;99813.59;;;18.05;73.18
15529;BME280;7866;52.280;9.500;2023-08-08T07:36:45;99805.84;;;18.20;72.80
15529;BME280;7866;52.280;9.500;2023-08-08T07:41:47;99798.88;;;18.12;71.79
15529;BME280;7866;52.280;9.500;2023-08-08T07:46:49;99809.88;;;18.29;69.75
15529;BME280;7866;52.280;9.500;2023-08-08T07:51:51;99803.44;;;18.65;69.47
15529;BME280;7866;52.280;9.500;2023-08-08T07:56:53;99807.00;;;18.78;69.48
15529;BME280;7866;52.280;9.500;2023-08-08T08:01:56;99808.06;;;19.12;68.65
15529;BME280;7866;52.280;9.500;2023-08-08T08:06:57;99801.00;;;18.87;68.63
15529;BME280;7866;52.280;9.500;2023-08-08T08:12:02;99801.84;;;18.34;70.05
15529;BME280;7866;52.280;9.500;2023-08-08T08:17:06;99788.22;;;18.41;69.71
15529;BME280;7866;52.280;9.500;2023-08-08T08:22:07;99779.13;;;18.59;69.13
15529;BME280;7866;52.280;9.500;2023-08-08T08:27:09;99778.91;;;18.60;68.09
15529;BME280;7866;52.280;9.500;2023-08-08T08:32:12;99778.75;;;19.26;66.35
15529;BME280;7866;52.280;9.500;2023-08-08T08:37:14;99768.19;;;19.01;68.33
15529;BME280;7866;52.280;9.500;2023-08-08T08:42:15;99796.53;;;18.16;70.99
15529;BME280;7866;52.280;9.500;2023-08-08T08:47:20;99797.97;;;17.03;77.71
15529;BME280;7866;52.280;9.500;2023-08-08T08:52:23;99801.59;;;16.72;80.65
15529;BME280;7866;52.280;9.500;2023-08-08T08:57:25;99784.34;;;16.91;81.92
15529;BME280;7866;52.280;9.500;2023-08-08T09:02:29;99780.22;;;17.07;80.59
15529;BME280;7866;52.280;9.500;2023-08-08T09:07:32;99769.22;;;17.57;79.95
15529;BME280;7866;52.280;9.500;2023-08-08T09:12:34;99757.09;;;17.90;78.27
15529;BME280;7866;52.280;9.500;2023-08-08T09:17:41;99746.44;;;18.18;76.71
15529;BME280;7866;52.280;9.500;2023-08-08T09:22:43;99758.72;;;18.33;75.60
15529;BME280;7866;52.280;9.500;2023-08-08T09:27:45;99768.63;;;18.51;75.25
15529;BME280;7866;52.280;9.500;2023-08-08T09:32:49;99766.16;;;18.49;73.29
15529;BME280;7866;52.280;9.500;2023-08-08T09:37:53;99759.34;;;18.82;72.74
15529;BME280;7866;52.280;9.500;2023-08-08T09:42:56;99765.97;;;18.74;72.09
15529;BME280;7866;52.280;9.500;2023-08-08T09:48:00;99761.81;;;18.48;71.56
15529;BME280;7866;52.280;9.500;2023-08-08T09:53:02;99762.84;;;18.24;72.67
15529;BME280;7866;52.280;9.500;2023-08-08T09:58:05;99757.69;;;18.45;71.59
15529;BME280;7866;52.280;9.500;2023-08-08T10:03:10;99761.69;;;18.66;70.38
15529;BME280;7866;52.280;9.500;2023-08-08T10:08:14;99754.16;;;19.44;68.97
15529;BME280;7866;52.280;9.500;2023-08-08T10:13:19;99760.50;;;19.78;67.73
15529;BME280;7866;52.280;9.500;2023-08-08T10:18:23;99765.81;;;18.69;70.69
15529;BME280;7866;52.280;9.500;2023-08-08T10:23:26;99762.28;;;19.44;68.40
15529;BME280;7866;52.280;9.500;2023-08-08T10:28:36;99765.56;;;19.86;66.49
15529;BME280;7866;52.280;9.500;2023-08-08T10:33:43;99750.44;;;20.24;63.29
15529;BME280;7866;52.280;9.500;2023-08-08T10:38:46;99759.31;;;20.03;64.55
15529;BME280;7866;52.280;9.500;2023-08-08T10:43:52;99744.31;;;19.03;67.08
15529;BME280;7866;52.280;9.500;2023-08-08T10:48:57;99779.03;;;18.54;69.45
15529;BME280;7866;52.280;9.500;2023-08-08T10:54:03;99774.19;;;18.67;69.25
15529;BME280;7866;52.280;9.500;2023-08-08T10:59:13;99762.13;;;19.62;66.21
15529;BME280;7866;52.280;9.500;2023-08-08T11:04:18;99744.19;;;20.40;64.38
15529;BME280;7866;52.280;9.500;2023-08-08T11:09:20;99747.78;;;19.96;64.56
15529;BME280;7866;52.280;9.500;2023-08-08T11:14:22;99755.81;;;19.74;62.85
15529;BME280;7866;52.280;9.500;2023-08-08T11:19:25;99745.09;;;20.29;61.24
15529;BME280;7866;52.280;9.500;2023-08-08T11:24:34;99745.81;;;20.41;60.85
15529;BME280;7866;52.280;9.500;2023-08-08T11:29:36;99738.69;;;20.52;59.74
15529;BME280;7866;52.280;9.500;2023-08-08T11:34:39;99754.31;;;21.01;58.58
15529;BME280;7866;52.280;9.500;2023-08-08T11:39:41;99739.44;;;21.08;58.35
15529;BME280;7866;52.280;9.500;2023-08-08T11:44:43;99745.09;;;21.46;58.22
15529;BME280;7866;52.280;9.500;2023-08-08T11:49:46;99745.56;;;20.77;58.21
15529;BME280;7866;52.280;9.500;2023-08-08T11:54:50;99751.47;;;20.52;60.19
15529;BME280;7866;52.280;9.500;2023-08-08T11:59:55;99741.19;;;20.42;59.53
15529;BME280;7866;52.280;9.500;2023-08-08T12:05:04;99745.66;;;20.14;58.72
15529;BME280;7866;52.280;9.500;2023-08-08T12:10:14;99743.00;;;20.03;58.95
15529;BME280;7866;52.280;9.500;2023-08-08T12:15:15;99743.69;;;20.60;59.16
15529;BME280;7866;52.280;9.500;2023-08-08T12:20:18;99721.44;;;20.13;60.02
15529;BME280;7866;52.280;9.500;2023-08-08T12:25:20;99738.09;;;20.00;59.97
15529;BME280;7866;52.280;9.500;2023-08-08T12:30:22;99740.88;;;19.88;61.60
15529;BME280;7866;52.280;9.500;2023-08-08T12:35:25;99738.00;;;20.45;59.93
15529;BME280;7866;52.280;9.500;2023-08-08T12:40:27;99727.38;;;20.43;59.21
15529;BME280;7866;52.280;9.500;2023-08-08T12:45:29;99731.91;;;20.21;58.73
15529;BME280;7866;52.280;9.500;2023-08-08T12:50:33;99760.91;;;19.70;60.84
15529;BME280;7866;52.280;9.500;2023-08-08T12:55:35;99817.41;;;18.27;64.16
15529;BME280;7866;52.280;9.500;2023-08-08T13:00:37;99812.97;;;17.72;66.48
15529;BME280;7866;52.280;9.500;2023-08-08T13:05:41;99793.94;;;18.21;64.44
15529;BME280;7866;52.280;9.500;2023-08-08T13:10:42;99784.34;;;18.60;63.08
15529;BME280;7866;52.280;9.500;2023-08-08T13:15:44;99763.47;;;18.84;62.08
15529;BME280;7866;52.280;9.500;2023-08-08T13:20:47;99762.19;;;19.39;62.01
15529;BME280;7866;52.280;9.500;2023-08-08T13:25:49;99759.34;;;21.09;58.08
15529;BME280;7866;52.280;9.500;2023-08-08T13:30:51;99743.81;;;19.86;60.43
15529;BME280;7866;52.280;9.500;2023-08-08T13:35:53;99722.06;;;19.58;60.69
15529;BME280;7866;52.280;9.500;2023-08-08T13:40:55;99720.63;;;19.96;60.87
15529;BME280;7866;52.280;9.500;2023-08-08T13:45:57;99724.56;;;20.05;59.37
15529;BME280;7866;52.280;9.500;2023-08-08T13:51:00;99745.00;;;19.50;60.68
15529;BME280;7866;52.280;9.500;2023-08-08T13:56:02;99758.09;;;19.25;61.78
15529;BME280;7866;52.280;9.500;2023-08-08T14:01:04;99749.13;;;19.24;61.26
15529;BME280;7866;52.280;9.500;2023-08-08T14:06:07;99748.09;;;19.13;60.78
15529;BME280;7866;52.280;9.500;2023-08-08T14:11:09;99763.09;;;19.04;60.80
15529;BME280;7866;52.280;9.500;2023-08-08T14:16:10;99770.66;;;19.42;60.11
15529;BME280;7866;52.280;9.500;2023-08-08T14:21:14;99760.50;;;19.50;58.17
15529;BME280;7866;52.280;9.500;2023-08-08T14:26:16;99762.75;;;19.81;57.52
15529;BME280;7866;52.280;9.500;2023-08-08T14:31:18;99773.69;;;19.58;57.19
15529;BME280;7866;52.280;9.500;2023-08-08T14:36:21;99784.84;;;19.44;57.20
15529;BME280;7866;52.280;9.500;2023-08-08T14:41:22;99783.84;;;19.51;57.33
15529;BME280;7866;52.280;9.500;2023-08-08T14:46:24;99797.06;;;19.59;57.17
15529;BME280;7866;52.280;9.500;2023-08-08T14:51:27;99880.53;;;19.23;58.67
15529;BME280;7866;52.280;9.500;2023-08-08T14:56:29;99874.00;;;16.38;71.79
15529;BME280;7866;52.280;9.500;2023-08-08T15:01:31;99858.75;;;16.19;76.31
15529;BME280;7866;52.280;9.500;2023-08-08T15:06:36;99858.88;;;15.99;77.48
15529;BME280;7866;52.280;9.500;2023-08-08T15:11:38;99864.09;;;15.94;77.73
15529;BME280;7866;52.280;9.500;2023-08-08T15:16:40;99850.03;;;15.85;78.01
15529;BME280;7866;52.280;9.500;2023-08-08T15:21:43;99861.63;;;15.92;77.98
15529;BME280;7866;52.280;9.500;2023-08-08T15:26:44;99851.16;;;16.34;77.96
15529;BME280;7866;52.280;9.500;2023-08-08T15:31:46;99854.22;;;16.76;76.38
15529;BME280;7866;52.280;9.500;2023-08-08T15:36:49;99868.03;;;16.61;77.54
15529;BME280;7866;52.280;9.500;2023-08-08T15:41:51;99867.47;;;16.21;77.37
15529;BME280;7866;52.280;9.500;2023-08-08T15:46:53;99857.00;;;16.31;79.32
15529;BME280;7866;52.280;9.500;2023-08-08T15:51:56;99848.94;;;16.56;78.14
15529;BME280;7866;52.280;9.500;2023-08-08T15:56:57;99842.25;;;16.59;77.55
15529;BME280;7866;52.280;9.500;2023-08-08T16:01:59;99831.91;;;16.56;78.38
15529;BME280;7866;52.280;9.500;2023-08-08T16:07:02;99827.19;;;16.94;76.21
15529;BME280;7866;52.280;9.500;2023-08-08T16:12:04;99826.56;;;17.36;76.29
15529;BME280;7866;52.280;9.500;2023-08-08T16:17:06;99823.59;;;17.56;75.41
15529;BME280;7866;52.280;9.500;2023-08-08T16:22:09;99833.06;;;17.46;76.64
15529;BME280;7866;52.280;9.500;2023-08-08T16:27:11;99834.00;;;17.40;75.25
15529;BME280;7866;52.280;9.500;2023-08-08T16:32:13;99833.69;;;17.48;75.99
15529;BME280;7866;52.280;9.500;2023-08-08T16:37:16;99835.03;;;17.21;76.62
15529;BME280;7866;52.280;9.500;2023-08-08T16:42:17;99843.66;;;17.11;77.51
15529;BME280;7866;52.280;9.500;2023-08-08T16:47:19;99841.19;;;17.10;77.74
15529;BME280;7866;52.280;9.500;2023-08-08T16:52:22;99859.25;;;17.16;78.28
15529;BME280;7866;52.280;9.500;2023-08-08T16:57:24;99855.78;;;17.09;79.04
15529;BME280;7866;52.280;9.500;2023-08-08T17:02:25;99856.25;;;17.24;79.18
15529;BME280;7866;52.280;9.500;2023-08-08T17:07:29;99844.84;;;17.15;78.85
15529;BME280;7866;52.280;9.500;2023-08-08T17:12:30;99852.34;;;17.20;78.76
15529;BME280;7866;52.280;9.500;2023-08-08T17:17:32;99858.63;;;17.14;79.60
15529;BME280;7866;52.280;9.500;2023-08-08T17:22:35;99849.63;;;17.20;79.31
15529;BME280;7866;52.280;9.500;2023-08-08T17:27:37;99839.91;;;17.31;78.23
15529;BME280;7866;52.280;9.500;2023-08-08T17:32:39;99843.59;;;17.18;78.64
15529;BME280;7866;52.280;9.500;2023-08-08T17:37:42;99836.19;;;17.32;78.70
15529;BME280;7866;52.280;9.500;2023-08-08T17:42:43;99849.38;;;17.21;79.13
15529;BME280;7866;52.280;9.500;2023-08-08T17:47:45;99836.53;;;17.17;77.39
15529;BME280;7866;52.280;9.500;2023-08-08T17:52:49;99833.53;;;17.25;76.84
15529;BME280;7866;52.280;9.500;2023-08-08T17:57:50;99839.75;;;17.07;76.70
15529;BME280;7866;52.280;9.500;2023-08-08T18:02:52;99839.94;;;16.87;75.87
15529;BME280;7866;52.280;9.500;2023-08-08T18:07:56;99843.03;;;16.91;75.04
15529;BME280;7866;52.280;9.500;2023-08-08T18:12:58;99848.06;;;16.87;74.63
15529;BME280;7866;52.280;9.500;2023-08-08T18:17:59;99854.66;;;16.73;74.92
15529;BME280;7866;52.280;9.500;2023-08-08T18:23:03;99852.34;;;16.70;74.59
15529;BME280;7866;52.280;9.500;2023-08-08T18:28:04;99852.34;;;16.70;74.36
15529;BME280;7866;52.280;9.500;2023-08-08T18:33:06;99857.59;;;16.65;74.09
15529;BME280;7866;52.280;9.500;2023-08-08T18:38:09;99866.00;;;16.57;74.39
15529;BME280;7866;52.280;9.500;2023-08-08T18:43:11;99874.78;;;16.45;74.18
15529;BME280;7866;52.280;9.500;2023-08-08T18:48:12;99870.75;;;16.30;75.17
15529;BME280;7866;52.280;9.500;2023-08-08T18:53:15;99867.47;;;16.21;75.42
15529;BME280;7866;52.280;9.500;2023-08-08T18:58:17;99865.38;;;16.23;75.43
15529;BME280;7866;52.280;9.500;2023-08-08T19:03:19;99870.38;;;16.19;75.23
15529;BME280;7866;52.280;9.500;2023-08-08T19:08:22;99865.88;;;16.13;75.93
15529;BME280;7866;52.280;9.500;2023-08-08T19:13:23;99873.69;;;15.90;76.50
15529;BME280;7866;52.280;9.500;2023-08-08T19:18:25;99883.06;;;15.81;77.13
15529;BME280;7866;52.280;9.500;2023-08-08T19:23:28;99880.22;;;15.69;77.47
15529;BME280;7866;52.280;9.500;2023-08-08T19:28:30;99880.22;;;15.69;77.46
15529;BME280;7866;52.280;9.500;2023-08-08T19:33:31;99866.94;;;15.61;77.63
15529;BME280;7866;52.280;9.500;2023-08-08T19:38:35;99877.09;;;15.59;77.70
15529;BME280;7866;52.280;9.500;2023-08-08T19:43:36;99867.13;;;15.59;77.61
15529;BME280;7866;52.280;9.500;2023-08-08T19:48:38;99869.63;;;15.61;76.99
15529;BME280;7866;52.280;9.500;2023-08-08T19:53:41;99876.28;;;15.65;76.75
15529;BME280;7866;52.280;9.500;2023-08-08T19:58:43;99892.47;;;15.65;76.53
15529;BME280;7866;52.280;9.500;2023-08-08T20:03:44;99889.78;;;15.65;77.02
15529;BME280;7866;52.280;9.500;2023-08-08T20:08:47;99882.25;;;15.73;75.72
15529;BME280;7866;52.280;9.500;2023-08-08T20:13:49;99876.44;;;15.76;76.34
15529;BME280;7866;52.280;9.500;2023-08-08T20:18:51;99873.09;;;15.81;75.84
15529;BME280;7866;52.280;9.500;2023-08-08T20:23:54;99867.28;;;15.84;76.20
15529;BME280;7866;52.280;9.500;2023-08-08T20:28:55;99875.38;;;15.84;75.64
15529;BME280;7866;52.280;9.500;2023-08-08T20:33:57;99880.94;;;15.89;75.78
15529;BME280;7866;52.280;9.500;2023-08-08T20:39:00;99869.09;;;15.90;75.51
15529;BME280;7866;52.280;9.500;2023-08-08T20:44:04;99874.06;;;15.93;75.76
15529;BME280;7866;52.280;9.500;2023-08-08T20:49:07;99874.88;;;16.00;75.37
15529;BME280;7866;52.280;9.500;2023-08-08T20:54:10;99887.31;;;16.01;75.15
15529;BME280;7866;52.280;9.500;2023-08-08T20:59:12;99889.84;;;15.96;75.58
15529;BME280;7866;52.280;9.500;2023-08-08T21:04:13;99891.09;;;15.94;75.60
15529;BME280;7866;52.280;9.500;2023-08-08T21:09:16;99891.94;;;15.94;76.07
15529;BME280;7866;52.280;9.500;2023-08-08T21:14:18;99910.44;;;15.91;76.46
15529;BME280;7866;52.280;9.500;2023-08-08T21:19:20;99900.69;;;15.83;76.35
15529;BME280;7866;52.280;9.500;2023-08-08T21:24:23;99905.91;;;15.78;76.43
15529;BME280;7866;52.280;9.500;2023-08-08T21:29:25;99906.16;;;15.70;76.90
15529;BME280;7866;52.280;9.500;2023-08-08T21:34:26;99896.16;;;15.64;77.21
15529;BME280;7866;52.280;9.500;2023-08-08T21:39:29;99903.47;;;15.57;77.74
15529;BME280;7866;52.280;9.500;2023-08-08T21:44:31;99912.41;;;15.57;78.16
15529;BME280;7866;52.280;9.500;2023-08-08T21:49:33;99918.44;;;15.52;77.79
15529;BME280;7866;52.280;9.500;2023-08-08T21:54:36;99929.66;;;15.49;78.29
15529;BME280;7866;52.280;9.500;2023-08-08T21:59:38;99925.09;;;15.43;79.24
15529;BME280;7866;52.280;9.500;2023-08-08T22:04:39;99928.44;;;15.19;80.30
15529;BME280;7866;52.280;9.500;2023-08-08T22:09:43;99924.13;;;15.05;80.68
15529;BME280;7866;52.280;9.500;2023-08-08T22:14:45;99923.50;;;14.89;82.10
15529;BME280;7866;52.280;9.500;2023-08-08T22:19:46;99907.31;;;14.83;83.05
15529;BME280;7866;52.280;9.500;2023-08-08T22:24:49;99905.03;;;14.86;82.84
15529;BME280;7866;52.280;9.500;2023-08-08T22:29:51;99918.94;;;14.83;83.30
15529;BME280;7866;52.280;9.500;2023-08-08T22:34:53;99912.28;;;14.79;83.29
15529;BME280;7866;52.280;9.500;2023-08-08T22:39:56;99916.03;;;14.78;82.55
15529;BME280;7866;52.280;9.500;2023-08-08T22:44:58;99916.63;;;14.80;83.37
15529;BME280;7866;52.280;9.500;2023-08-08T22:49:59;99919.13;;;14.75;82.95
15529;BME280;7866;52.280;9.500;2023-08-08T22:55:03;99917.69;;;14.66;84.11
15529;BME280;7866;52.280;9.500;2023-08-08T23:00:06;99919.34;;;14.67;84.55
15529;BME280;7866;52.280;9.500;2023-08-08T23:05:08;99902.75;;;14.63;85.27
15529;BME280;7866;52.280;9.500;2023-08-08T23:10:11;99895.69;;;14.49;85.71
15529;BME280;7866;52.280;9.500;2023-08-08T23:15:13;99889.44;;;14.48;86.67
15529;BME280;7866;52.280;9.500;2023-08-08T23:20:14;99882.59;;;14.46;86.14
15529;BME280;7866;52.280;9.500;2023-08-08T23:25:17;99886.53;;;14.37;86.38
15529;BME280;7866;52.280;9.500;2023-08-08T23:30:22;99880.50;;;14.35;87.46
15529;BME280;7866;52.280;9.500;2023-08-08T23:35:24;99885.06;;;14.34;86.04
15529;BME280;7866;52.280;9.500;2023-08-08T23:40:27;99877.78;;;14.28;85.89
15529;BME280;7866;52.280;9.500;2023-08-08T23:45:28;99874.88;;;14.23;86.05
15529;BME280;7866;52.280;9.500;2023-08-08T23:50:30;99862.25;;;14.23;85.46
15529;BME280;7866;52.280;9.500;2023-08-08T23:55:33;99868.06;;;14.20;85.30
